Hatfield, Missouri
Current Conditions -  °F | °C
As of 4:53 PM on Friday 19 Dec 2014 (Local Time) from KLWD Reporting Station
Haze Haze  
Wind Chill: 25°   Ceiling: 600
Heat Index: 31°   Visibility: 6mi
Dew Point: 29°   Wind: 6mph
Humidity: 92%   Direction: 190°S
Pressure: 30.19"   Gusts: NA
Location:  40.53°N, 94.15°W
Report Text: KLWD 192253Z AUTO 19005KT 6SM BR OVC006 M01/M02 A3019 RMK AO2 SLP237 T10061017
Loading
Personal Weather Stations






























Interactive Weather Map New forecast layout! Learn more

10-Day Weather Forecast

Advertisements
Track Severe Weather on mobile